createdAt,value
2023-04-25T00:01:14.286Z,10.30
2023-04-25T00:06:16.118Z,10.30
2023-04-25T00:11:17.799Z,10.30
2023-04-25T00:16:19.719Z,10.30
2023-04-25T00:21:22.143Z,10.10
2023-04-25T00:26:23.972Z,10.00
2023-04-25T00:31:25.954Z,9.90
2023-04-25T00:36:28.591Z,9.90
2023-04-25T00:41:31.230Z,9.80
2023-04-25T00:46:33.238Z,9.80
2023-04-25T00:51:35.303Z,9.80
2023-04-25T00:56:37.057Z,9.70
2023-04-25T01:01:40.132Z,9.60
2023-04-25T01:06:41.962Z,9.60
2023-04-25T01:11:43.744Z,9.60
2023-04-25T01:16:46.161Z,9.50
2023-04-25T01:21:48.234Z,9.50
2023-04-25T01:26:51.388Z,9.30
2023-04-25T01:31:53.923Z,9.20
2023-04-25T01:36:56.390Z,9.20
2023-04-25T01:41:59.790Z,9.20
2023-04-25T01:47:01.849Z,9.20
2023-04-25T01:52:03.678Z,9.20
2023-04-25T01:57:05.406Z,9.20
2023-04-25T02:02:07.446Z,9.20
2023-04-25T02:07:09.200Z,9.20
2023-04-25T02:12:11.432Z,9.20
2023-04-25T02:17:13.715Z,9.20
2023-04-25T02:22:15.687Z,9.20
2023-04-25T02:27:17.416Z,9.20
2023-04-25T02:32:19.129Z,9.20
2023-04-25T02:37:20.918Z,9.30
2023-04-25T02:42:22.760Z,9.30
2023-04-25T02:47:24.749Z,9.30
2023-04-25T02:52:26.729Z,9.30
2023-04-25T02:57:28.460Z,9.30
2023-04-25T03:02:30.303Z,9.30
2023-04-25T03:07:32.165Z,9.20
2023-04-25T03:12:33.908Z,9.20
2023-04-25T03:17:35.727Z,9.00
2023-04-25T03:22:37.681Z,9.00
2023-04-25T03:27:39.524Z,8.80
2023-04-25T03:32:41.244Z,8.70
2023-04-25T03:37:46.417Z,8.70
2023-04-25T03:42:48.141Z,8.70
2023-04-25T03:47:50.413Z,8.80
2023-04-25T03:52:52.291Z,8.60
2023-04-25T03:57:54.077Z,8.40
2023-04-25T04:02:56.084Z,8.30
2023-04-25T04:07:57.907Z,8.30
2023-04-25T04:12:59.740Z,8.10
2023-04-25T04:18:04.547Z,8.00
2023-04-25T04:23:06.641Z,8.00
2023-04-25T04:28:08.492Z,8.10
2023-04-25T04:33:10.435Z,8.10
2023-04-25T04:38:12.821Z,8.00
2023-04-25T04:43:18.072Z,8.30
2023-04-25T04:48:19.770Z,8.40
2023-04-25T04:53:21.454Z,8.40
2023-04-25T04:58:23.797Z,8.50
2023-04-25T05:03:25.763Z,8.60
2023-04-25T05:08:27.582Z,8.80
2023-04-25T05:13:29.377Z,8.80
2023-04-25T05:18:31.220Z,8.90
2023-04-25T05:23:34.110Z,9.00
2023-04-25T05:28:35.821Z,8.90
2023-04-25T05:33:37.513Z,8.50
2023-04-25T05:38:39.293Z,8.10
2023-04-25T05:43:46.092Z,7.90
2023-04-25T05:48:48.190Z,7.80
2023-04-25T05:53:50.085Z,7.80
2023-04-25T05:58:52.046Z,7.60
2023-04-25T06:03:54.222Z,7.50
2023-04-25T06:08:56.590Z,7.50
2023-04-25T06:13:58.455Z,7.40
2023-04-25T06:19:00.172Z,7.50
2023-04-25T06:24:01.886Z,7.60
2023-04-25T06:29:03.669Z,7.60
2023-04-25T06:34:05.421Z,7.70
2023-04-25T06:39:07.124Z,7.70
2023-04-25T06:44:08.859Z,7.70
2023-04-25T06:49:10.670Z,7.60
2023-04-25T06:54:12.418Z,7.60
2023-04-25T06:59:14.132Z,7.70
2023-04-25T07:04:16.016Z,7.70
2023-04-25T07:09:18.286Z,7.70
2023-04-25T07:14:19.985Z,7.80
2023-04-25T07:19:21.779Z,7.70
2023-04-25T07:24:23.516Z,7.70
2023-04-25T07:29:25.598Z,7.90
2023-04-25T07:34:27.394Z,8.10
2023-04-25T07:39:29.102Z,8.10
2023-04-25T07:44:39.283Z,8.10
2023-04-25T07:49:41.130Z,8.00
2023-04-25T07:54:42.843Z,8.00
2023-04-25T07:59:44.706Z,8.00
2023-04-25T08:04:46.603Z,8.10
2023-04-25T08:09:48.554Z,8.30
2023-04-25T08:14:50.270Z,8.20
2023-04-25T08:19:52.049Z,8.30
2023-04-25T08:24:53.914Z,8.60
2023-04-25T08:29:55.886Z,8.90
2023-04-25T08:34:57.856Z,9.10
2023-04-25T08:39:59.724Z,9.00
2023-04-25T08:45:04.373Z,9.00
2023-04-25T08:50:08.459Z,8.90
2023-04-25T08:55:10.685Z,8.90
2023-04-25T09:00:13.857Z,8.90
2023-04-25T09:05:15.955Z,8.90
2023-04-25T09:10:17.812Z,9.10
2023-04-25T09:15:20.950Z,9.20
2023-04-25T09:20:22.969Z,9.30
2023-04-25T09:25:26.528Z,9.50
2023-04-25T09:30:32.809Z,9.70
2023-04-25T09:35:46.101Z,9.70
2023-04-25T09:40:50.437Z,9.80
2023-04-25T09:45:55.229Z,9.90
2023-04-25T09:51:12.230Z,10.50
2023-04-25T09:56:14.393Z,11.20
2023-04-25T10:01:18.027Z,11.80
2023-04-25T10:06:22.527Z,11.30
2023-04-25T10:11:26.100Z,11.00
2023-04-25T10:16:29.233Z,11.30
2023-04-25T10:21:33.923Z,11.70
2023-04-25T10:26:35.755Z,11.90
2023-04-25T10:31:46.824Z,12.60
2023-04-25T10:36:55.812Z,13.40
2023-04-25T10:41:59.255Z,13.70
2023-04-25T10:47:02.570Z,13.50
2023-04-25T10:52:17.430Z,13.90
2023-04-25T10:57:40.130Z,14.10
2023-04-25T11:03:03.123Z,13.50
2023-04-25T11:08:15.122Z,13.50
2023-04-25T11:13:16.872Z,14.40
2023-04-25T11:18:19.723Z,15.00
2023-04-25T11:23:21.603Z,15.30
2023-04-25T11:28:24.728Z,15.40
2023-04-25T11:33:30.959Z,14.80
2023-04-25T11:38:32.746Z,13.10
2023-04-25T11:43:35.173Z,12.80
2023-04-25T11:48:43.889Z,13.10
2023-04-25T11:53:46.525Z,12.30
2023-04-25T11:59:02.449Z,11.80
2023-04-25T12:04:16.093Z,11.30
2023-04-25T12:09:33.203Z,11.30
2023-04-25T12:14:36.709Z,12.90
2023-04-25T12:19:42.185Z,14.50
2023-04-25T12:24:46.447Z,15.90
2023-04-25T12:29:57.637Z,16.70
2023-04-25T12:34:59.436Z,16.30
2023-04-25T12:40:01.526Z,16.60
2023-04-25T12:45:03.417Z,16.50
2023-04-25T12:50:05.567Z,16.10
2023-04-25T12:55:07.651Z,16.00
2023-04-25T13:00:15.690Z,16.90
2023-04-25T13:05:17.516Z,16.30
2023-04-25T13:10:19.347Z,16.90
2023-04-25T13:15:21.515Z,17.00
2023-04-25T13:20:23.477Z,16.60
2023-04-25T13:25:25.888Z,17.30
2023-04-25T13:30:27.635Z,17.00
2023-04-25T13:35:29.490Z,16.70
2023-04-25T13:40:31.320Z,16.40
2023-04-25T13:45:33.763Z,16.20
2023-04-25T13:50:36.259Z,16.40
2023-04-25T13:55:38.325Z,15.80
2023-04-25T14:00:40.960Z,15.90
2023-04-25T14:05:43.041Z,16.30
2023-04-25T14:10:44.764Z,16.10
2023-04-25T14:15:46.801Z,15.50
2023-04-25T14:20:48.863Z,14.30
2023-04-25T14:25:50.634Z,14.80
2023-04-25T14:30:52.460Z,14.20
2023-04-25T14:35:54.287Z,14.50
2023-04-25T14:40:56.219Z,14.30
2023-04-25T14:45:58.636Z,14.10
2023-04-25T14:51:03.825Z,13.80
2023-04-25T14:56:06.037Z,14.10
2023-04-25T15:01:08.155Z,13.90
2023-04-25T15:06:11.635Z,13.70
2023-04-25T15:11:13.442Z,13.40
2023-04-25T15:16:15.224Z,13.00
2023-04-25T15:21:17.046Z,12.70
2023-04-25T15:26:18.813Z,12.20
2023-04-25T15:31:20.787Z,11.90
2023-04-25T15:36:22.835Z,11.70
2023-04-25T15:41:26.260Z,11.60
2023-04-25T15:46:28.476Z,11.50
2023-04-25T15:51:30.680Z,10.90
2023-04-25T15:56:32.431Z,10.70
2023-04-25T16:01:34.870Z,10.60
2023-04-25T16:06:36.809Z,10.20
2023-04-25T16:11:38.502Z,10.10
2023-04-25T16:16:40.278Z,10.00
2023-04-25T16:21:42.872Z,10.20
2023-04-25T16:26:45.462Z,10.50
2023-04-25T16:31:47.621Z,10.60
2023-04-25T16:36:49.691Z,11.00
2023-04-25T16:41:52.048Z,11.00
2023-04-25T16:46:53.857Z,11.00
2023-04-25T16:51:55.727Z,11.10
2023-04-25T16:56:58.244Z,11.10
2023-04-25T17:02:00.067Z,11.00
2023-04-25T17:07:01.889Z,11.00
2023-04-25T17:12:04.535Z,10.50
2023-04-25T17:17:07.053Z,10.60
2023-04-25T17:22:09.279Z,10.70
2023-04-25T17:27:11.703Z,10.20
2023-04-25T17:32:15.061Z,10.10
2023-04-25T17:37:18.931Z,10.00
2023-04-25T17:42:20.709Z,10.30
2023-04-25T17:47:23.755Z,10.50
2023-04-25T17:52:25.890Z,10.50
2023-04-25T17:57:27.704Z,10.80
2023-04-25T18:02:29.640Z,10.90
2023-04-25T18:07:31.416Z,11.00
2023-04-25T18:12:34.026Z,10.90
2023-04-25T18:17:42.645Z,10.60
2023-04-25T18:22:45.584Z,10.20
2023-04-25T18:27:47.428Z,9.70
2023-04-25T18:32:50.210Z,9.80
2023-04-25T18:37:51.945Z,10.00
2023-04-25T18:42:53.937Z,9.90
2023-04-25T18:47:55.692Z,9.80
2023-04-25T18:52:57.618Z,9.80
2023-04-25T18:57:59.415Z,9.90
2023-04-25T19:03:04.656Z,9.90
2023-04-25T19:08:06.533Z,9.90
2023-04-25T19:13:08.554Z,10.00
2023-04-25T19:18:10.400Z,9.90
2023-04-25T19:23:12.683Z,9.80
2023-04-25T19:28:15.432Z,9.60
2023-04-25T19:33:17.611Z,9.70
2023-04-25T19:38:19.348Z,9.70
2023-04-25T19:43:21.090Z,9.30
2023-04-25T19:48:22.990Z,9.30
2023-04-25T19:53:24.750Z,9.20
2023-04-25T19:58:26.481Z,9.20
2023-04-25T20:03:28.404Z,9.20
2023-04-25T20:08:30.263Z,9.20
2023-04-25T20:13:32.591Z,8.90
2023-04-25T20:18:34.351Z,8.80
2023-04-25T20:23:36.036Z,8.90
2023-04-25T20:28:37.934Z,9.00
2023-04-25T20:33:39.776Z,9.10
2023-04-25T20:38:41.504Z,9.30
2023-04-25T20:43:43.313Z,9.20
2023-04-25T20:48:45.062Z,9.10
2023-04-25T20:53:46.732Z,9.00
2023-04-25T20:58:48.477Z,8.90
2023-04-25T21:03:51.783Z,9.00
2023-04-25T21:08:54.055Z,9.10
2023-04-25T21:13:56.098Z,9.30
2023-04-25T21:18:57.790Z,9.20
2023-04-25T21:23:59.532Z,9.20
2023-04-25T21:29:01.228Z,9.50
2023-04-25T21:34:03.321Z,9.50
2023-04-25T21:39:05.640Z,9.30
2023-04-25T21:44:07.411Z,9.30
2023-04-25T21:49:09.249Z,9.20
2023-04-25T21:54:11.061Z,9.10
2023-04-25T21:59:12.826Z,8.90
2023-04-25T22:04:14.887Z,9.00
2023-04-25T22:09:16.788Z,9.00
2023-04-25T22:14:18.937Z,9.10
2023-04-25T22:19:21.595Z,8.80
2023-04-25T22:24:24.565Z,8.70
2023-04-25T22:29:26.721Z,8.70
2023-04-25T22:34:28.508Z,8.70
2023-04-25T22:39:30.518Z,8.70
2023-04-25T22:44:33.640Z,8.80
2023-04-25T22:49:35.402Z,8.80
2023-04-25T22:54:39.421Z,8.80
2023-04-25T22:59:41.113Z,8.70
2023-04-25T23:04:43.116Z,8.70
2023-04-25T23:09:45.132Z,8.80
2023-04-25T23:14:51.938Z,8.80
2023-04-25T23:19:53.639Z,8.90
2023-04-25T23:24:55.899Z,8.90
2023-04-25T23:29:58.073Z,8.80
2023-04-25T23:34:59.962Z,8.60
2023-04-25T23:40:01.943Z,8.60
2023-04-25T23:45:05.117Z,8.60
2023-04-25T23:50:08.033Z,8.60
2023-04-25T23:55:10.637Z,8.50
